createdAt,value
2018-08-03T00:01:27.791Z,34.60
2018-08-03T00:03:32.433Z,34.90
2018-08-03T00:05:37.006Z,33.80
2018-08-03T00:07:41.499Z,33.80
2018-08-03T00:09:46.168Z,34.50
2018-08-03T00:11:50.588Z,35.60
2018-08-03T00:13:57.081Z,37.30
2018-08-03T00:16:01.618Z,37.90
2018-08-03T00:18:06.452Z,38.20
2018-08-03T00:20:10.921Z,38.40
2018-08-03T00:22:15.342Z,38.80
2018-08-03T00:26:23.596Z,39.30
2018-08-03T00:28:28.652Z,39.70
2018-08-03T00:30:36.019Z,38.30
2018-08-03T00:32:40.769Z,40.60
2018-08-03T00:34:45.336Z,38.30
2018-08-03T00:36:49.914Z,39.20
2018-08-03T00:38:54.405Z,39.00
2018-08-03T00:40:59.522Z,39.70
2018-08-03T00:43:04.225Z,38.90
2018-08-03T00:47:12.872Z,43.10
2018-08-03T00:49:17.328Z,41.70
2018-08-03T00:51:21.737Z,42.90
2018-08-03T00:53:26.578Z,45.00
2018-08-03T00:55:33.317Z,42.60
2018-08-03T00:57:37.869Z,43.00
2018-08-03T00:59:42.234Z,43.50
2018-08-03T01:01:46.647Z,45.10
2018-08-03T01:03:51.040Z,45.10
2018-08-03T01:05:55.924Z,45.70
2018-08-03T01:08:00.294Z,46.70
2018-08-03T01:10:05.089Z,46.80
2018-08-03T01:12:09.427Z,48.10
2018-08-03T01:14:13.742Z,44.30
2018-08-03T01:16:18.104Z,44.70
2018-08-03T01:18:22.465Z,48.00
2018-08-03T01:20:26.908Z,45.20
2018-08-03T01:22:31.238Z,48.30
2018-08-03T01:24:35.597Z,45.80
2018-08-03T01:26:39.931Z,45.80
2018-08-03T01:28:44.359Z,45.60
2018-08-03T01:30:48.811Z,45.70
2018-08-03T01:32:53.233Z,48.00
2018-08-03T01:34:57.619Z,48.20
2018-08-03T01:37:01.983Z,50.40
2018-08-03T01:39:08.142Z,48.30
2018-08-03T01:41:12.468Z,49.00
2018-08-03T01:43:16.818Z,49.40
2018-08-03T01:45:21.137Z,50.30
2018-08-03T01:47:25.468Z,50.10
2018-08-03T01:49:29.820Z,52.00
2018-08-03T01:51:34.796Z,54.40
2018-08-03T01:56:11.713Z,53.80
2018-08-03T01:58:18.527Z,55.00
2018-08-03T02:02:27.031Z,54.10
2018-08-03T02:04:31.532Z,54.60
2018-08-03T02:06:36.036Z,55.30
2018-08-03T02:08:43.308Z,55.40
2018-08-03T02:10:47.787Z,55.50
2018-08-03T02:12:52.298Z,54.10
2018-08-03T02:14:56.760Z,55.10
2018-08-03T02:17:01.479Z,55.30
2018-08-03T02:19:06.093Z,55.30
2018-08-03T02:21:10.702Z,55.90
2018-08-03T02:27:38.699Z,58.50
2018-08-03T02:29:44.219Z,60.30
2018-08-03T02:31:48.660Z,60.10
2018-08-03T02:33:53.360Z,61.70
2018-08-03T02:35:58.128Z,61.80
2018-08-03T02:38:03.732Z,62.70
2018-08-03T02:40:08.251Z,61.60
2018-08-03T02:42:12.680Z,58.80
2018-08-03T02:44:17.441Z,58.80
2018-08-03T02:46:23.012Z,61.70
2018-08-03T02:48:27.451Z,60.30
2018-08-03T02:50:32.964Z,61.70
2018-08-03T02:52:37.536Z,62.20
2018-08-03T02:54:42.001Z,60.20
2018-08-03T02:56:48.421Z,63.50
2018-08-03T02:58:53.283Z,61.50
2018-08-03T03:00:57.901Z,63.50
2018-08-03T03:03:03.119Z,60.10
2018-08-03T03:05:07.719Z,61.50
2018-08-03T03:07:14.167Z,60.30
2018-08-03T03:09:18.950Z,66.70
2018-08-03T03:11:23.409Z,66.00
2018-08-03T03:13:27.942Z,63.70
2018-08-03T03:15:32.436Z,65.90
2018-08-03T03:17:37.116Z,64.10
2018-08-03T03:26:20.653Z,62.50
2018-08-03T03:30:29.278Z,63.70
2018-08-03T03:32:33.969Z,65.50
2018-08-03T03:34:39.573Z,67.30
2018-08-03T03:36:44.194Z,64.20
2018-08-03T03:38:48.592Z,65.30
2018-08-03T03:40:53.074Z,66.40
2018-08-03T03:42:58.676Z,66.20
2018-08-03T03:45:06.356Z,65.50
2018-08-03T03:47:13.066Z,67.50
2018-08-03T03:49:17.630Z,66.20
2018-08-03T03:57:09.320Z,64.40
2018-08-03T03:59:23.915Z,64.10
2018-08-03T04:01:29.226Z,63.80
2018-08-03T04:03:35.812Z,65.00
2018-08-03T04:10:27.746Z,65.50
2018-08-03T04:12:48.486Z,65.90
2018-08-03T04:14:53.058Z,65.20
2018-08-03T04:16:57.671Z,69.40
2018-08-03T04:19:02.081Z,69.70
2018-08-03T04:21:09.089Z,70.40
2018-08-03T04:23:13.730Z,66.70
2018-08-03T04:30:49.160Z,68.70
2018-08-03T04:32:53.764Z,70.30
2018-08-03T04:34:58.136Z,68.10
2018-08-03T04:37:02.688Z,71.00
2018-08-03T04:39:08.900Z,69.60
2018-08-03T04:43:45.606Z,67.90
2018-08-03T04:45:50.129Z,69.10
2018-08-03T04:47:57.516Z,65.50
2018-08-03T04:50:02.062Z,67.70
2018-08-03T04:52:07.336Z,65.40
2018-08-03T04:54:11.904Z,67.20
2018-08-03T04:56:16.423Z,70.40
2018-08-03T04:58:20.966Z,71.40
2018-08-03T05:00:25.602Z,72.40
2018-08-03T05:02:33.400Z,71.50
2018-08-03T05:04:38.046Z,74.40
2018-08-03T05:06:43.008Z,73.50
2018-08-03T05:08:47.536Z,75.50
2018-08-03T05:10:53.159Z,73.40
2018-08-03T05:12:57.633Z,72.10
2018-08-03T05:15:02.541Z,72.20
2018-08-03T05:17:07.154Z,71.30
2018-08-03T05:19:11.734Z,71.00
2018-08-03T05:21:16.470Z,70.40
2018-08-03T05:23:21.199Z,74.10
2018-08-03T05:25:26.088Z,69.80
2018-08-03T05:27:30.954Z,71.10
2018-08-03T05:29:36.097Z,73.50
2018-08-03T05:31:40.784Z,68.90
2018-08-03T05:33:45.269Z,68.10
2018-08-03T05:35:49.769Z,68.40
2018-08-03T05:37:54.295Z,68.30
2018-08-03T05:39:58.972Z,72.70
2018-08-03T05:42:03.549Z,70.40
2018-08-03T05:44:08.637Z,74.40
2018-08-03T05:46:13.178Z,72.20
2018-08-03T05:48:17.704Z,73.00
2018-08-03T05:50:22.298Z,69.90
2018-08-03T05:52:26.836Z,71.30
2018-08-03T05:54:31.346Z,70.00
2018-08-03T05:56:35.976Z,66.50
2018-08-03T05:58:40.524Z,67.40
2018-08-03T06:00:45.057Z,63.00
2018-08-03T06:02:49.730Z,61.10
2018-08-03T06:04:54.330Z,59.10
2018-08-03T06:07:00.107Z,60.40
2018-08-03T06:09:08.464Z,61.70
2018-08-03T06:11:13.657Z,59.10
2018-08-03T06:13:23.034Z,55.70
2018-08-03T06:15:27.628Z,56.70
2018-08-03T06:17:32.099Z,55.40
2018-08-03T06:19:36.703Z,54.80
2018-08-03T06:24:20.939Z,51.30
2018-08-03T06:26:25.824Z,45.10
2018-08-03T06:28:30.437Z,46.70
2018-08-03T06:30:36.531Z,46.00
2018-08-03T06:32:41.526Z,45.90
2018-08-03T06:34:46.220Z,46.30
2018-08-03T06:36:50.762Z,40.70
2018-08-03T06:38:55.263Z,41.50
2018-08-03T06:40:59.884Z,37.90
2018-08-03T06:43:04.405Z,37.30
2018-08-03T06:45:14.405Z,39.50
2018-08-03T06:48:24.868Z,36.60
2018-08-03T06:50:29.516Z,33.90
2018-08-03T06:52:34.031Z,33.20
2018-08-03T06:54:38.567Z,31.50
2018-08-03T06:56:43.069Z,34.30
2018-08-03T07:00:52.065Z,31.70
2018-08-03T07:02:57.273Z,30.90
2018-08-03T07:05:02.007Z,28.60
2018-08-03T07:07:06.744Z,28.30
2018-08-03T07:09:12.522Z,27.40
2018-08-03T07:11:17.120Z,28.60
2018-08-03T07:13:22.220Z,28.50
2018-08-03T07:15:27.025Z,28.40
2018-08-03T07:17:31.691Z,28.00
2018-08-03T07:19:36.262Z,23.90
2018-08-03T07:21:40.849Z,24.30
2018-08-03T07:23:45.309Z,25.70
2018-08-03T07:25:49.932Z,25.50
2018-08-03T07:27:54.457Z,25.20
2018-08-03T07:29:59.020Z,22.20
2018-08-03T07:32:03.571Z,24.90
2018-08-03T07:34:08.194Z,24.40
2018-08-03T07:36:12.786Z,23.00
2018-08-03T07:38:17.465Z,20.60
2018-08-03T07:40:22.094Z,22.30
2018-08-03T07:42:26.703Z,20.60
2018-08-03T07:44:31.540Z,20.90
2018-08-03T07:46:39.087Z,20.70
2018-08-03T07:48:43.578Z,20.70
2018-08-03T07:50:48.216Z,17.10
2018-08-03T07:52:52.740Z,16.20
2018-08-03T07:54:57.450Z,14.10
2018-08-03T07:57:02.008Z,15.30
2018-08-03T07:59:07.578Z,14.30
2018-08-03T08:01:12.355Z,13.50
2018-08-03T08:03:16.926Z,15.90
2018-08-03T08:07:25.479Z,15.00
2018-08-03T08:09:29.985Z,12.50
2018-08-03T08:11:34.592Z,12.40
2018-08-03T08:13:39.271Z,11.60
2018-08-03T08:15:43.832Z,11.90
2018-08-03T08:17:48.458Z,12.50
2018-08-03T08:19:53.075Z,9.20
2018-08-03T08:21:57.628Z,9.40
2018-08-03T08:24:02.158Z,12.10
2018-08-03T08:26:06.987Z,11.90
2018-08-03T08:28:11.607Z,9.80
2018-08-03T08:30:16.065Z,11.70
2018-08-03T08:32:20.693Z,11.50
2018-08-03T08:34:25.127Z,9.80
2018-08-03T08:36:30.573Z,10.40
2018-08-03T08:38:35.681Z,5.30
2018-08-03T08:40:40.160Z,7.50
2018-08-03T08:42:44.720Z,7.10
2018-08-03T08:44:50.161Z,5.50
2018-08-03T08:46:54.725Z,4.00
2018-08-03T08:48:59.283Z,5.40
2018-08-03T08:51:05.203Z,3.10
2018-08-03T08:55:14.032Z,1.00
2018-08-03T08:57:18.931Z,1.60
2018-08-03T08:59:23.750Z,1.00
2018-08-03T09:01:28.466Z,1.40
2018-08-03T09:03:33.109Z,1.00
2018-08-03T09:05:37.662Z,1.00
2018-08-03T09:07:42.933Z,1.00
2018-08-03T09:09:47.392Z,1.00
2018-08-03T09:11:51.889Z,1.00
2018-08-03T09:13:56.395Z,1.00
2018-08-03T09:16:00.949Z,1.00
2018-08-03T09:18:05.610Z,1.00
2018-08-03T09:20:10.125Z,1.00
2018-08-03T09:22:14.717Z,1.00
2018-08-03T09:24:19.173Z,1.00
2018-08-03T09:26:23.725Z,1.00
2018-08-03T09:28:28.280Z,1.00
2018-08-03T09:30:32.723Z,1.00
2018-08-03T09:32:37.268Z,1.00
2018-08-03T09:34:41.732Z,1.00
2018-08-03T09:36:46.282Z,1.00
2018-08-03T09:38:50.823Z,1.00
2018-08-03T09:40:55.283Z,1.00
2018-08-03T09:42:59.829Z,1.00
2018-08-03T09:45:04.882Z,1.00
2018-08-03T09:47:09.427Z,1.00
2018-08-03T09:49:14.033Z,1.00
2018-08-03T09:51:18.559Z,1.00
2018-08-03T09:53:23.000Z,1.00
2018-08-03T09:55:27.444Z,1.00
2018-08-03T09:57:31.946Z,1.00
2018-08-03T09:59:36.407Z,1.00
2018-08-03T10:01:40.906Z,1.00
2018-08-03T10:03:45.316Z,1.00
2018-08-03T10:05:49.821Z,1.00
2018-08-03T10:07:55.036Z,1.00
2018-08-03T10:10:00.984Z,1.00
2018-08-03T10:12:05.508Z,1.00
2018-08-03T10:14:10.737Z,1.00
2018-08-03T10:16:15.187Z,1.00
2018-08-03T10:18:19.650Z,1.00
2018-08-03T10:20:24.112Z,1.00
2018-08-03T10:22:28.588Z,1.00
2018-08-03T10:24:33.054Z,1.00
2018-08-03T10:26:37.530Z,1.00
2018-08-03T10:28:42.004Z,1.00
2018-08-03T10:30:46.425Z,1.00
2018-08-03T10:32:50.898Z,1.00
2018-08-03T10:34:55.367Z,1.00
2018-08-03T10:36:59.914Z,1.00
2018-08-03T10:39:06.003Z,1.00
2018-08-03T10:41:10.451Z,1.00
2018-08-03T10:43:15.169Z,1.00
2018-08-03T10:45:19.495Z,1.00
2018-08-03T10:47:23.940Z,1.00
2018-08-03T10:49:28.394Z,1.00
2018-08-03T10:51:33.020Z,1.00
2018-08-03T10:53:37.474Z,1.00
2018-08-03T10:55:41.969Z,1.00
2018-08-03T10:57:46.415Z,1.00
2018-08-03T10:59:50.865Z,1.00
2018-08-03T11:01:55.513Z,1.00
2018-08-03T11:04:00.039Z,1.00
2018-08-03T11:06:04.529Z,1.00
2018-08-03T11:08:09.024Z,1.00
2018-08-03T11:10:15.133Z,1.00
2018-08-03T11:12:19.584Z,1.00
2018-08-03T11:14:24.036Z,1.00
2018-08-03T11:16:28.526Z,1.00
2018-08-03T11:18:33.056Z,1.00
2018-08-03T11:20:38.332Z,1.00
2018-08-03T11:22:42.955Z,1.00
2018-08-03T11:24:47.402Z,1.00
2018-08-03T11:26:51.953Z,1.00
2018-08-03T11:28:56.408Z,1.00
2018-08-03T11:31:00.831Z,1.00
2018-08-03T11:33:05.335Z,1.00
2018-08-03T11:35:10.237Z,1.00
2018-08-03T11:37:14.692Z,1.00
2018-08-03T11:39:19.206Z,1.00
2018-08-03T11:41:23.643Z,1.00
2018-08-03T11:43:28.113Z,1.00
2018-08-03T11:45:32.556Z,1.00
2018-08-03T11:47:36.991Z,1.00
2018-08-03T11:49:41.487Z,1.00
2018-08-03T11:51:45.985Z,1.00
2018-08-03T11:53:50.477Z,1.00
2018-08-03T11:55:54.929Z,1.00
2018-08-03T11:57:59.792Z,1.00
2018-08-03T12:00:04.358Z,1.00
2018-08-03T12:02:09.065Z,1.00
2018-08-03T12:04:13.608Z,1.00
2018-08-03T12:06:18.080Z,1.00
2018-08-03T12:08:22.592Z,1.00
2018-08-03T12:10:27.040Z,1.00
2018-08-03T12:12:31.888Z,1.00
2018-08-03T12:14:37.175Z,1.00
2018-08-03T12:16:41.628Z,1.00
2018-08-03T12:18:46.077Z,1.00
2018-08-03T12:20:50.482Z,1.00
2018-08-03T12:22:55.013Z,1.00
2018-08-03T12:24:59.827Z,1.00
2018-08-03T12:27:04.376Z,1.00
2018-08-03T12:29:08.839Z,1.00
2018-08-03T12:31:13.308Z,1.00
2018-08-03T12:33:18.626Z,1.00
2018-08-03T12:35:23.188Z,1.00
2018-08-03T12:39:31.747Z,1.00
2018-08-03T12:41:36.285Z,1.00
2018-08-03T12:43:40.867Z,1.00
2018-08-03T12:45:45.429Z,1.00
2018-08-03T12:47:49.944Z,1.00
2018-08-03T12:49:54.566Z,1.00
2018-08-03T12:51:59.075Z,1.00
2018-08-03T12:54:03.579Z,1.00
2018-08-03T12:56:08.092Z,1.00
2018-08-03T12:58:12.549Z,1.00
2018-08-03T13:00:17.006Z,1.00
2018-08-03T13:02:21.504Z,1.00
2018-08-03T13:04:26.840Z,1.00
2018-08-03T13:06:31.298Z,1.00
2018-08-03T13:08:35.773Z,1.00
2018-08-03T13:10:40.195Z,1.00
2018-08-03T13:12:44.726Z,1.00
2018-08-03T13:14:49.252Z,1.00
2018-08-03T13:18:57.784Z,1.00
2018-08-03T13:21:07.551Z,1.00
2018-08-03T13:23:12.687Z,1.00
2018-08-03T13:25:17.180Z,1.00
2018-08-03T13:27:21.771Z,1.00
2018-08-03T13:29:26.346Z,1.00
2018-08-03T13:31:31.738Z,1.00
2018-08-03T13:33:36.224Z,1.00
2018-08-03T13:35:40.655Z,1.00
2018-08-03T13:37:45.178Z,1.00
2018-08-03T13:39:49.645Z,1.00
2018-08-03T13:41:54.187Z,1.00
2018-08-03T13:43:58.728Z,1.00
2018-08-03T13:46:03.250Z,1.00
2018-08-03T13:48:07.737Z,1.00
2018-08-03T13:50:12.327Z,1.00
2018-08-03T13:52:16.725Z,1.00
2018-08-03T13:54:21.232Z,1.00
2018-08-03T13:56:25.728Z,1.00
2018-08-03T13:58:30.261Z,1.00
2018-08-03T14:00:34.917Z,1.00
2018-08-03T14:02:40.366Z,1.00
2018-08-03T14:04:46.198Z,1.00
2018-08-03T14:06:50.668Z,1.00
2018-08-03T14:08:55.184Z,1.00
2018-08-03T14:10:59.637Z,1.00
2018-08-03T14:13:04.201Z,1.00
2018-08-03T14:15:09.107Z,1.00
2018-08-03T14:17:13.653Z,1.00
2018-08-03T14:19:18.192Z,1.00
2018-08-03T14:21:22.861Z,1.00
2018-08-03T14:23:27.380Z,1.00
2018-08-03T14:25:31.997Z,1.00
2018-08-03T14:27:36.600Z,1.00
2018-08-03T14:29:41.289Z,1.00
2018-08-03T14:31:45.849Z,1.00
2018-08-03T14:33:50.376Z,1.00
2018-08-03T14:35:54.849Z,1.00
2018-08-03T14:37:59.492Z,1.00
2018-08-03T14:40:04.186Z,1.00
2018-08-03T14:42:08.757Z,1.00
2018-08-03T14:44:13.245Z,1.00
2018-08-03T14:46:17.801Z,1.00
2018-08-03T14:48:22.283Z,1.00
2018-08-03T14:50:26.841Z,1.00
2018-08-03T14:52:31.328Z,1.00
2018-08-03T14:54:35.923Z,1.00
2018-08-03T14:56:40.386Z,1.00
2018-08-03T14:58:44.891Z,1.00
2018-08-03T15:00:49.335Z,1.00
2018-08-03T15:02:53.833Z,1.00
2018-08-03T15:04:58.261Z,1.00
2018-08-03T15:07:02.670Z,1.00
2018-08-03T15:09:08.953Z,1.00
2018-08-03T15:13:17.360Z,1.00
2018-08-03T15:15:21.965Z,1.00
2018-08-03T15:17:26.431Z,1.00
2018-08-03T15:19:30.930Z,1.00
2018-08-03T15:21:35.380Z,1.00
2018-08-03T15:23:39.850Z,1.00
2018-08-03T15:25:44.317Z,1.00
2018-08-03T15:27:48.731Z,1.00
2018-08-03T15:29:53.296Z,1.00
2018-08-03T15:31:57.737Z,1.00
2018-08-03T15:34:02.196Z,1.00
2018-08-03T15:36:06.711Z,1.00
2018-08-03T15:38:11.152Z,1.00
2018-08-03T15:40:15.723Z,1.00
2018-08-03T15:42:20.609Z,1.00
2018-08-03T15:44:25.110Z,1.00
2018-08-03T15:46:29.740Z,1.00
2018-08-03T15:48:34.511Z,1.00
2018-08-03T15:52:43.077Z,1.00
2018-08-03T15:54:47.549Z,1.00
2018-08-03T15:56:52.016Z,1.00
2018-08-03T15:58:56.495Z,1.00
2018-08-03T16:01:00.919Z,1.00
2018-08-03T16:03:05.483Z,1.00
2018-08-03T16:05:10.418Z,1.00
2018-08-03T16:07:14.926Z,1.00
2018-08-03T16:09:19.398Z,1.00
2018-08-03T16:11:23.846Z,1.00
2018-08-03T16:13:28.305Z,1.00
2018-08-03T16:15:33.398Z,1.00
2018-08-03T16:17:37.813Z,1.00
2018-08-03T16:19:42.366Z,1.00
2018-08-03T16:21:47.128Z,1.00
2018-08-03T16:23:51.664Z,1.00
2018-08-03T16:25:56.453Z,1.00
2018-08-03T16:28:01.004Z,1.00
2018-08-03T16:30:07.623Z,1.00
2018-08-03T16:34:16.634Z,1.00
2018-08-03T16:36:23.450Z,1.00
2018-08-03T16:38:30.509Z,1.00
2018-08-03T16:40:35.328Z,1.00
2018-08-03T16:42:40.112Z,1.00
2018-08-03T16:44:44.591Z,1.00
2018-08-03T16:46:49.334Z,1.00
2018-08-03T16:48:53.942Z,1.00
2018-08-03T16:50:58.534Z,1.00
2018-08-03T16:53:03.083Z,1.00
2018-08-03T16:55:08.459Z,1.00
2018-08-03T16:57:13.189Z,1.00
2018-08-03T16:59:17.797Z,1.00
2018-08-03T17:01:22.325Z,1.00
2018-08-03T17:03:26.814Z,1.00
2018-08-03T17:05:31.279Z,1.00
2018-08-03T17:07:35.682Z,1.00
2018-08-03T17:09:41.235Z,1.00
2018-08-03T17:11:45.808Z,1.00
2018-08-03T17:13:50.916Z,1.00
2018-08-03T17:15:55.456Z,1.00
2018-08-03T17:17:59.894Z,1.00
2018-08-03T17:20:04.463Z,1.00
2018-08-03T17:22:09.062Z,1.00
2018-08-03T17:24:13.552Z,1.00
2018-08-03T17:26:18.018Z,1.00
2018-08-03T17:28:22.565Z,1.00
2018-08-03T17:30:27.084Z,1.00
2018-08-03T17:32:31.552Z,1.00
2018-08-03T17:34:36.079Z,1.00
2018-08-03T17:36:40.526Z,1.00
2018-08-03T17:38:45.031Z,1.00
2018-08-03T17:40:49.500Z,1.00
2018-08-03T17:42:53.999Z,1.00
2018-08-03T17:44:58.473Z,1.00
2018-08-03T17:47:02.921Z,1.00
2018-08-03T17:49:07.361Z,1.00
2018-08-03T17:51:11.979Z,1.00
2018-08-03T17:53:16.484Z,1.00
2018-08-03T17:55:20.952Z,1.00
2018-08-03T17:57:25.889Z,1.00
2018-08-03T17:59:30.347Z,1.00
2018-08-03T18:01:34.976Z,1.00
2018-08-03T18:05:45.594Z,1.00
2018-08-03T18:07:50.172Z,1.00
2018-08-03T18:09:55.358Z,1.00
2018-08-03T18:11:59.902Z,1.00
2018-08-03T18:14:04.577Z,1.00
2018-08-03T18:16:09.776Z,1.00
2018-08-03T18:18:14.201Z,1.00
2018-08-03T18:20:18.744Z,1.00
2018-08-03T18:22:23.238Z,1.00
2018-08-03T18:24:27.685Z,1.00
2018-08-03T18:26:32.295Z,1.00
2018-08-03T18:28:36.901Z,1.00
2018-08-03T18:30:41.374Z,1.00
2018-08-03T18:32:46.241Z,1.00
2018-08-03T18:36:54.861Z,1.00
2018-08-03T18:38:59.326Z,1.00
2018-08-03T18:41:03.801Z,1.00
2018-08-03T18:43:08.262Z,1.00
2018-08-03T18:45:12.868Z,1.00
2018-08-03T18:47:17.714Z,1.00
2018-08-03T18:49:22.536Z,1.00
2018-08-03T18:51:27.164Z,1.00
2018-08-03T18:53:31.756Z,1.00
2018-08-03T18:55:36.234Z,1.00
2018-08-03T18:57:40.783Z,1.00
2018-08-03T18:59:45.154Z,1.00
2018-08-03T19:01:49.857Z,1.00
2018-08-03T19:03:54.262Z,1.00
2018-08-03T19:05:58.727Z,1.00
2018-08-03T19:08:03.148Z,1.00
2018-08-03T19:10:07.712Z,1.00
2018-08-03T19:12:12.159Z,1.00
2018-08-03T19:14:16.644Z,1.00
2018-08-03T19:16:26.808Z,1.00
2018-08-03T19:18:31.505Z,1.00
2018-08-03T19:20:36.074Z,1.00
2018-08-03T19:22:40.521Z,1.00
2018-08-03T19:24:45.010Z,1.00
2018-08-03T19:26:49.656Z,1.00
2018-08-03T19:30:58.275Z,1.00
2018-08-03T19:33:02.703Z,1.00
2018-08-03T19:35:07.181Z,1.00
2018-08-03T19:37:17.529Z,1.00
2018-08-03T19:39:22.637Z,1.00
2018-08-03T19:41:27.306Z,1.00
2018-08-03T19:43:31.895Z,1.00
2018-08-03T19:45:36.672Z,1.00
2018-08-03T19:47:41.310Z,1.00
2018-08-03T19:49:45.974Z,1.00
2018-08-03T19:51:50.544Z,1.00
2018-08-03T19:53:55.173Z,1.00
2018-08-03T19:55:59.777Z,1.00
2018-08-03T19:58:04.407Z,1.00
2018-08-03T20:02:14.608Z,1.00
2018-08-03T20:04:19.115Z,1.00
2018-08-03T20:06:23.661Z,1.00
2018-08-03T20:08:28.312Z,1.00
2018-08-03T20:10:32.805Z,1.00
2018-08-03T20:12:37.320Z,1.00
2018-08-03T20:14:41.822Z,1.00
2018-08-03T20:16:46.456Z,1.00
2018-08-03T20:18:51.388Z,1.00
2018-08-03T20:20:56.167Z,1.00
2018-08-03T20:23:00.778Z,1.00
2018-08-03T20:25:06.164Z,1.00
2018-08-03T20:27:10.661Z,1.00
2018-08-03T20:29:15.152Z,1.00
2018-08-03T20:31:19.666Z,1.00
2018-08-03T20:33:24.096Z,1.00
2018-08-03T20:37:32.626Z,1.00
2018-08-03T20:39:37.098Z,1.00
2018-08-03T20:41:41.608Z,1.00
2018-08-03T20:43:47.756Z,1.00
2018-08-03T20:45:52.477Z,1.00
2018-08-03T20:47:56.879Z,1.00
2018-08-03T20:50:01.348Z,1.00
2018-08-03T20:52:05.982Z,1.00
2018-08-03T20:54:12.074Z,1.00
2018-08-03T20:56:20.948Z,1.00
2018-08-03T20:58:29.596Z,1.00
2018-08-03T21:00:34.618Z,1.00
2018-08-03T21:02:39.108Z,1.00
2018-08-03T21:04:43.533Z,1.00
2018-08-03T21:06:48.102Z,1.00
2018-08-03T21:08:52.785Z,1.00
2018-08-03T21:10:57.431Z,1.00
2018-08-03T21:13:02.087Z,1.00
2018-08-03T21:15:07.951Z,1.00
2018-08-03T21:17:13.339Z,1.00
2018-08-03T21:19:18.164Z,1.00
2018-08-03T21:21:22.927Z,1.00
2018-08-03T21:23:27.466Z,1.00
2018-08-03T21:25:32.045Z,1.00
2018-08-03T21:27:36.575Z,1.00
2018-08-03T21:29:41.271Z,1.40
2018-08-03T21:31:45.735Z,1.00
2018-08-03T21:35:54.483Z,1.00
2018-08-03T21:37:59.045Z,1.00
2018-08-03T21:40:03.590Z,1.00
2018-08-03T21:42:08.222Z,1.00
2018-08-03T21:44:12.762Z,1.00
2018-08-03T21:46:17.256Z,1.00
2018-08-03T21:48:21.696Z,1.00
2018-08-03T21:50:26.196Z,1.00
2018-08-03T21:52:30.872Z,1.50
2018-08-03T21:54:35.386Z,1.00
2018-08-03T21:56:39.887Z,1.00
2018-08-03T21:58:44.427Z,1.00
2018-08-03T22:00:48.957Z,1.00
2018-08-03T22:02:53.461Z,1.00
2018-08-03T22:04:57.952Z,1.00
2018-08-03T22:07:02.449Z,1.00
2018-08-03T22:09:08.737Z,1.00
2018-08-03T22:11:13.217Z,1.00
2018-08-03T22:13:18.545Z,1.00
2018-08-03T22:15:22.980Z,1.00
2018-08-03T22:17:27.480Z,1.70
2018-08-03T22:19:31.934Z,1.00
2018-08-03T22:21:36.597Z,1.00
2018-08-03T22:25:44.984Z,2.60
2018-08-03T22:27:50.946Z,1.20
2018-08-03T22:29:55.695Z,2.80
2018-08-03T22:32:00.268Z,5.50
2018-08-03T22:34:04.760Z,1.00
2018-08-03T22:36:09.357Z,1.10
2018-08-03T22:38:14.012Z,1.00
2018-08-03T22:40:18.639Z,4.00
2018-08-03T22:42:23.248Z,1.70
2018-08-03T22:44:27.671Z,1.00
2018-08-03T22:46:32.316Z,1.00
2018-08-03T22:48:36.835Z,1.10
2018-08-03T22:50:41.357Z,4.30
2018-08-03T22:52:45.905Z,1.00
2018-08-03T22:54:50.453Z,2.10
2018-08-03T22:56:55.011Z,3.50
2018-08-03T22:58:59.543Z,5.10
2018-08-03T23:01:04.368Z,3.70
2018-08-03T23:03:08.856Z,3.70
2018-08-03T23:05:13.358Z,5.80
2018-08-03T23:07:17.911Z,4.40
2018-08-03T23:09:23.353Z,1.10
2018-08-03T23:11:27.802Z,4.10
2018-08-03T23:13:32.341Z,3.80
2018-08-03T23:15:37.522Z,2.10
2018-08-03T23:17:43.384Z,4.30
2018-08-03T23:19:49.301Z,4.40
2018-08-03T23:21:54.767Z,6.40
2018-08-03T23:24:00.670Z,5.40
2018-08-03T23:26:05.721Z,4.90
2018-08-03T23:28:10.745Z,5.80
2018-08-03T23:30:15.204Z,5.80
2018-08-03T23:32:20.401Z,5.30
2018-08-03T23:34:24.870Z,6.10
2018-08-03T23:36:31.471Z,6.10
2018-08-03T23:38:36.061Z,4.20
2018-08-03T23:40:43.692Z,6.10
2018-08-03T23:42:49.316Z,6.10
2018-08-03T23:44:55.612Z,7.50
2018-08-03T23:47:00.300Z,7.60
2018-08-03T23:49:05.916Z,5.20
2018-08-03T23:51:11.735Z,7.20
2018-08-03T23:53:16.268Z,6.10
2018-08-03T23:55:20.737Z,5.90
2018-08-03T23:57:25.187Z,6.00
2018-08-03T23:59:29.644Z,5.90
